sensor_id;sensor_type;location;lat;lon;timestamp;pressure;altitude;pressure_sealevel;temperature;humidity
64551;BME280;50945;44.472;-123.352;2022-09-23T00:01:05;100771.16;;;22.24;50.33
64551;BME280;50945;44.472;-123.352;2022-09-23T00:03:38;100769.13;;;22.02;50.42
64551;BME280;50945;44.472;-123.352;2022-09-23T00:06:08;100766.91;;;21.87;50.66
64551;BME280;50945;44.472;-123.352;2022-09-23T00:08:39;100763.34;;;21.75;50.83
64551;BME280;50945;44.472;-123.352;2022-09-23T00:11:14;100758.91;;;21.62;49.86
64551;BME280;50945;44.472;-123.352;2022-09-23T00:13:42;100765.59;;;21.49;51.17
64551;BME280;50945;44.472;-123.352;2022-09-23T00:16:13;100754.59;;;21.42;51.53
64551;BME280;50945;44.472;-123.352;2022-09-23T00:18:40;100764.41;;;21.33;51.75
64551;BME280;50945;44.472;-123.352;2022-09-23T00:21:09;100754.53;;;21.25;51.84
64551;BME280;50945;44.472;-123.352;2022-09-23T00:23:37;100759.63;;;21.17;52.23
64551;BME280;50945;44.472;-123.352;2022-09-23T00:26:07;100752.19;;;21.05;52.39
64551;BME280;50945;44.472;-123.352;2022-09-23T00:28:33;100764.25;;;20.99;52.44
64551;BME280;50945;44.472;-123.352;2022-09-23T00:31:08;100769.34;;;20.91;52.64
64551;BME280;50945;44.472;-123.352;2022-09-23T00:33:35;100763.06;;;20.83;52.84
64551;BME280;50945;44.472;-123.352;2022-09-23T00:36:06;100762.13;;;20.78;53.31
64551;BME280;50945;44.472;-123.352;2022-09-23T00:38:33;100767.06;;;20.76;53.50
64551;BME280;50945;44.472;-123.352;2022-09-23T00:41:01;100755.22;;;20.80;53.50
64551;BME280;50945;44.472;-123.352;2022-09-23T00:43:43;100759.69;;;20.81;53.79
64551;BME280;50945;44.472;-123.352;2022-09-23T00:46:34;100756.78;;;20.76;53.78
64551;BME280;50945;44.472;-123.352;2022-09-23T00:49:12;100752.00;;;20.72;54.22
64551;BME280;50945;44.472;-123.352;2022-09-23T00:51:44;100756.44;;;20.73;53.99
64551;BME280;50945;44.472;-123.352;2022-09-23T00:54:12;100758.75;;;20.76;54.30
64551;BME280;50945;44.472;-123.352;2022-09-23T00:56:39;100759.97;;;20.68;54.38
64551;BME280;50945;44.472;-123.352;2022-09-23T00:59:08;100761.22;;;20.54;55.03
64551;BME280;50945;44.472;-123.352;2022-09-23T01:01:36;100764.84;;;20.42;55.15
64551;BME280;50945;44.472;-123.352;2022-09-23T01:04:03;100759.91;;;20.32;55.38
64551;BME280;50945;44.472;-123.352;2022-09-23T01:06:30;100769.66;;;20.23;55.70
64551;BME280;50945;44.472;-123.352;2022-09-23T01:08:57;100768.53;;;20.12;56.09
64551;BME280;50945;44.472;-123.352;2022-09-23T01:11:39;100764.56;;;20.08;56.36
64551;BME280;50945;44.472;-123.352;2022-09-23T01:23:04;100771.06;;;19.72;57.87
64551;BME280;50945;44.472;-123.352;2022-09-23T01:36:38;100778.56;;;19.23;58.66
64551;BME280;50945;44.472;-123.352;2022-09-23T01:39:30;100776.06;;;19.14;58.99
64551;BME280;50945;44.472;-123.352;2022-09-23T01:52:39;100788.88;;;18.72;60.41
64551;BME280;50945;44.472;-123.352;2022-09-23T01:55:41;100791.84;;;18.52;62.12
64551;BME280;50945;44.472;-123.352;2022-09-23T01:58:25;100792.09;;;18.43;59.97
64551;BME280;50945;44.472;-123.352;2022-09-23T02:01:01;100791.22;;;18.24;60.79
64551;BME280;50945;44.472;-123.352;2022-09-23T02:06:15;100792.88;;;18.00;61.16
64551;BME280;50945;44.472;-123.352;2022-09-23T02:09:12;100799.13;;;17.89;62.25
64551;BME280;50945;44.472;-123.352;2022-09-23T02:11:43;100800.19;;;17.81;61.19
64551;BME280;50945;44.472;-123.352;2022-09-23T02:16:49;100805.00;;;17.61;63.07
64551;BME280;50945;44.472;-123.352;2022-09-23T02:20:16;100800.16;;;17.49;62.92
64551;BME280;50945;44.472;-123.352;2022-09-23T02:22:39;100796.16;;;17.39;62.63
64551;BME280;50945;44.472;-123.352;2022-09-23T02:25:07;100802.78;;;17.31;63.26
64551;BME280;50945;44.472;-123.352;2022-09-23T02:27:52;100799.41;;;17.22;64.41
64551;BME280;50945;44.472;-123.352;2022-09-23T02:30:24;100800.50;;;17.15;62.65
64551;BME280;50945;44.472;-123.352;2022-09-23T02:35:34;100808.84;;;16.95;63.47
64551;BME280;50945;44.472;-123.352;2022-09-23T02:41:03;100805.44;;;16.79;64.15
64551;BME280;50945;44.472;-123.352;2022-09-23T02:46:18;100799.72;;;16.61;64.73
64551;BME280;50945;44.472;-123.352;2022-09-23T02:48:58;100804.19;;;16.55;64.56
64551;BME280;50945;44.472;-123.352;2022-09-23T02:51:26;100811.41;;;16.49;64.94
64551;BME280;50945;44.472;-123.352;2022-09-23T02:53:57;100814.81;;;16.45;64.67
64551;BME280;50945;44.472;-123.352;2022-09-23T02:56:24;100819.28;;;16.39;64.62
64551;BME280;50945;44.472;-123.352;2022-09-23T02:58:52;100809.09;;;16.33;64.83
64551;BME280;50945;44.472;-123.352;2022-09-23T03:10:08;100816.91;;;16.03;65.17
64551;BME280;50945;44.472;-123.352;2022-09-23T03:15:48;100814.97;;;15.90;66.70
64551;BME280;50945;44.472;-123.352;2022-09-23T03:18:36;100827.47;;;15.86;66.26
64551;BME280;50945;44.472;-123.352;2022-09-23T03:21:11;100820.69;;;15.82;66.04
64551;BME280;50945;44.472;-123.352;2022-09-23T03:23:40;100821.09;;;15.78;66.01
64551;BME280;50945;44.472;-123.352;2022-09-23T03:26:13;100827.88;;;15.76;65.92
64551;BME280;50945;44.472;-123.352;2022-09-23T03:28:42;100824.88;;;15.71;66.38
64551;BME280;50945;44.472;-123.352;2022-09-23T03:31:13;100825.91;;;15.70;66.04
64551;BME280;50945;44.472;-123.352;2022-09-23T03:33:45;100834.59;;;15.67;66.02
64551;BME280;50945;44.472;-123.352;2022-09-23T03:36:16;100830.75;;;15.61;66.49
64551;BME280;50945;44.472;-123.352;2022-09-23T03:39:25;100834.16;;;15.56;68.49
64551;BME280;50945;44.472;-123.352;2022-09-23T03:41:59;100834.34;;;15.55;67.49
64551;BME280;50945;44.472;-123.352;2022-09-23T03:44:28;100845.56;;;15.53;66.81
64551;BME280;50945;44.472;-123.352;2022-09-23T03:47:01;100846.81;;;15.51;67.04
64551;BME280;50945;44.472;-123.352;2022-09-23T03:49:32;100845.13;;;15.50;67.34
64551;BME280;50945;44.472;-123.352;2022-09-23T03:52:00;100848.09;;;15.48;66.90
64551;BME280;50945;44.472;-123.352;2022-09-23T03:54:28;100840.22;;;15.45;67.18
64551;BME280;50945;44.472;-123.352;2022-09-23T03:56:56;100847.41;;;15.39;67.45
64551;BME280;50945;44.472;-123.352;2022-09-23T03:59:24;100848.25;;;15.33;67.56
64551;BME280;50945;44.472;-123.352;2022-09-23T04:01:52;100853.91;;;15.25;67.59
64551;BME280;50945;44.472;-123.352;2022-09-23T04:04:20;100849.44;;;15.17;67.79
64551;BME280;50945;44.472;-123.352;2022-09-23T04:06:47;100856.13;;;15.08;68.45
64551;BME280;50945;44.472;-123.352;2022-09-23T04:09:16;100849.34;;;15.04;67.84
64551;BME280;50945;44.472;-123.352;2022-09-23T04:11:43;100846.53;;;14.97;68.61
64551;BME280;50945;44.472;-123.352;2022-09-23T04:14:09;100849.72;;;14.94;67.94
64551;BME280;50945;44.472;-123.352;2022-09-23T04:16:37;100850.50;;;14.88;68.98
64551;BME280;50945;44.472;-123.352;2022-09-23T04:19:03;100852.59;;;14.86;68.83
64551;BME280;50945;44.472;-123.352;2022-09-23T04:21:30;100852.16;;;14.82;68.86
64551;BME280;50945;44.472;-123.352;2022-09-23T04:23:56;100852.56;;;14.79;73.30
64551;BME280;50945;44.472;-123.352;2022-09-23T04:26:22;100853.63;;;14.78;68.90
64551;BME280;50945;44.472;-123.352;2022-09-23T04:28:49;100849.81;;;14.79;68.98
64551;BME280;50945;44.472;-123.352;2022-09-23T04:31:16;100845.16;;;14.80;69.24
64551;BME280;50945;44.472;-123.352;2022-09-23T04:33:42;100847.03;;;14.79;68.62
64551;BME280;50945;44.472;-123.352;2022-09-23T04:36:09;100852.75;;;14.78;69.04
64551;BME280;50945;44.472;-123.352;2022-09-23T04:38:36;100858.88;;;14.73;69.09
64551;BME280;50945;44.472;-123.352;2022-09-23T04:41:02;100865.16;;;14.67;69.39
64551;BME280;50945;44.472;-123.352;2022-09-23T04:43:29;100853.44;;;14.58;69.27
64551;BME280;50945;44.472;-123.352;2022-09-23T04:46:00;100859.28;;;14.49;69.63
64551;BME280;50945;44.472;-123.352;2022-09-23T04:48:27;100856.66;;;14.40;69.26
64551;BME280;50945;44.472;-123.352;2022-09-23T04:51:00;100857.00;;;14.31;69.46
64551;BME280;50945;44.472;-123.352;2022-09-23T04:53:27;100854.19;;;14.24;69.62
64551;BME280;50945;44.472;-123.352;2022-09-23T04:55:54;100860.06;;;14.21;70.23
64551;BME280;50945;44.472;-123.352;2022-09-23T04:58:20;100868.91;;;14.16;70.20
64551;BME280;50945;44.472;-123.352;2022-09-23T05:00:47;100861.91;;;14.14;70.60
64551;BME280;50945;44.472;-123.352;2022-09-23T05:03:14;100862.78;;;14.14;70.81
64551;BME280;50945;44.472;-123.352;2022-09-23T05:05:41;100869.31;;;14.13;70.76
64551;BME280;50945;44.472;-123.352;2022-09-23T05:08:07;100865.72;;;14.13;70.63
64551;BME280;50945;44.472;-123.352;2022-09-23T05:10:33;100873.31;;;14.11;70.46
64551;BME280;50945;44.472;-123.352;2022-09-23T05:13:00;100867.81;;;14.11;70.75
64551;BME280;50945;44.472;-123.352;2022-09-23T05:15:26;100861.06;;;14.13;70.73
64551;BME280;50945;44.472;-123.352;2022-09-23T05:17:56;100864.44;;;14.15;71.01
64551;BME280;50945;44.472;-123.352;2022-09-23T05:20:24;100861.31;;;14.18;70.75
64551;BME280;50945;44.472;-123.352;2022-09-23T05:22:50;100856.66;;;14.19;70.79
64551;BME280;50945;44.472;-123.352;2022-09-23T05:25:20;100865.97;;;14.18;70.54
64551;BME280;50945;44.472;-123.352;2022-09-23T05:27:48;100869.69;;;14.10;70.61
64551;BME280;50945;44.472;-123.352;2022-09-23T05:30:15;100879.50;;;13.98;70.18
64551;BME280;50945;44.472;-123.352;2022-09-23T05:32:41;100871.75;;;13.86;70.59
64551;BME280;50945;44.472;-123.352;2022-09-23T05:35:08;100873.59;;;13.79;70.86
64551;BME280;50945;44.472;-123.352;2022-09-23T05:37:34;100874.34;;;13.73;70.99
64551;BME280;50945;44.472;-123.352;2022-09-23T05:40:01;100874.75;;;13.70;71.26
64551;BME280;50945;44.472;-123.352;2022-09-23T05:42:27;100871.34;;;13.68;71.42
64551;BME280;50945;44.472;-123.352;2022-09-23T05:44:54;100868.59;;;13.68;71.26
64551;BME280;50945;44.472;-123.352;2022-09-23T05:47:20;100868.59;;;13.68;71.19
64551;BME280;50945;44.472;-123.352;2022-09-23T05:49:49;100873.63;;;13.64;71.43
64551;BME280;50945;44.472;-123.352;2022-09-23T05:52:16;100874.00;;;13.61;71.29
64551;BME280;50945;44.472;-123.352;2022-09-23T05:54:42;100872.00;;;13.55;71.26
64551;BME280;50945;44.472;-123.352;2022-09-23T05:57:08;100879.25;;;13.41;71.45
64551;BME280;50945;44.472;-123.352;2022-09-23T05:59:35;100870.13;;;13.26;71.81
64551;BME280;50945;44.472;-123.352;2022-09-23T06:02:02;100862.38;;;13.15;71.96
64551;BME280;50945;44.472;-123.352;2022-09-23T06:04:29;100870.09;;;13.11;72.26
64551;BME280;50945;44.472;-123.352;2022-09-23T06:06:55;100864.44;;;13.12;72.34
64551;BME280;50945;44.472;-123.352;2022-09-23T06:09:22;100872.66;;;13.12;72.38
64551;BME280;50945;44.472;-123.352;2022-09-23T06:11:48;100874.56;;;13.12;72.44
64551;BME280;50945;44.472;-123.352;2022-09-23T06:14:15;100881.31;;;13.09;72.28
64551;BME280;50945;44.472;-123.352;2022-09-23T06:16:42;100879.09;;;13.05;72.29
64551;BME280;50945;44.472;-123.352;2022-09-23T06:19:08;100881.75;;;12.98;72.41
64551;BME280;50945;44.472;-123.352;2022-09-23T06:21:37;100887.81;;;12.93;72.61
64551;BME280;50945;44.472;-123.352;2022-09-23T06:24:04;100888.91;;;12.84;72.50
64551;BME280;50945;44.472;-123.352;2022-09-23T06:26:31;100900.00;;;12.76;72.78
64551;BME280;50945;44.472;-123.352;2022-09-23T06:29:09;100898.84;;;12.70;72.75
64551;BME280;50945;44.472;-123.352;2022-09-23T06:31:39;100905.72;;;12.66;72.94
64551;BME280;50945;44.472;-123.352;2022-09-23T06:34:10;100900.81;;;12.62;73.31
64551;BME280;50945;44.472;-123.352;2022-09-23T06:36:37;100898.59;;;12.57;73.07
64551;BME280;50945;44.472;-123.352;2022-09-23T06:39:03;100898.47;;;12.50;73.55
64551;BME280;50945;44.472;-123.352;2022-09-23T06:41:30;100900.06;;;12.45;73.81
64551;BME280;50945;44.472;-123.352;2022-09-23T06:43:56;100900.44;;;12.42;73.95
64551;BME280;50945;44.472;-123.352;2022-09-23T06:46:23;100907.47;;;12.44;74.59
64551;BME280;50945;44.472;-123.352;2022-09-23T06:48:49;100902.94;;;12.51;74.40
64551;BME280;50945;44.472;-123.352;2022-09-23T06:51:16;100904.75;;;12.59;73.70
64551;BME280;50945;44.472;-123.352;2022-09-23T06:53:47;100910.53;;;12.64;74.04
64551;BME280;50945;44.472;-123.352;2022-09-23T06:56:15;100902.63;;;12.69;73.68
64551;BME280;50945;44.472;-123.352;2022-09-23T06:58:44;100902.97;;;12.66;74.18
64551;BME280;50945;44.472;-123.352;2022-09-23T07:01:13;100907.78;;;12.64;73.88
64551;BME280;50945;44.472;-123.352;2022-09-23T07:03:43;100914.53;;;12.62;73.59
64551;BME280;50945;44.472;-123.352;2022-09-23T07:06:10;100906.16;;;12.55;73.82
64551;BME280;50945;44.472;-123.352;2022-09-23T07:08:37;100903.66;;;12.45;73.34
64551;BME280;50945;44.472;-123.352;2022-09-23T07:11:05;100910.06;;;12.38;73.70
64551;BME280;50945;44.472;-123.352;2022-09-23T07:13:32;100908.06;;;12.31;73.83
64551;BME280;50945;44.472;-123.352;2022-09-23T07:15:59;100906.06;;;12.25;74.04
64551;BME280;50945;44.472;-123.352;2022-09-23T07:18:28;100916.88;;;12.18;74.41
64551;BME280;50945;44.472;-123.352;2022-09-23T07:20:55;100912.63;;;12.16;74.91
64551;BME280;50945;44.472;-123.352;2022-09-23T07:23:23;100918.13;;;12.16;74.76
64551;BME280;50945;44.472;-123.352;2022-09-23T07:25:50;100919.84;;;12.17;74.96
64551;BME280;50945;44.472;-123.352;2022-09-23T07:28:18;100916.72;;;12.20;75.10
64551;BME280;50945;44.472;-123.352;2022-09-23T07:30:46;100908.47;;;12.20;75.10
64551;BME280;50945;44.472;-123.352;2022-09-23T07:33:12;100919.09;;;12.23;74.90
64551;BME280;50945;44.472;-123.352;2022-09-23T07:35:40;100912.75;;;12.23;74.89
64551;BME280;50945;44.472;-123.352;2022-09-23T07:38:08;100914.16;;;12.18;74.44
64551;BME280;50945;44.472;-123.352;2022-09-23T07:40:35;100926.34;;;12.16;74.91
64551;BME280;50945;44.472;-123.352;2022-09-23T07:43:01;100925.66;;;12.14;78.96
64551;BME280;50945;44.472;-123.352;2022-09-23T07:45:29;100925.66;;;12.14;74.62
64551;BME280;50945;44.472;-123.352;2022-09-23T07:47:58;100922.25;;;12.12;74.90
64551;BME280;50945;44.472;-123.352;2022-09-23T07:50:24;100921.78;;;12.08;80.48
64551;BME280;50945;44.472;-123.352;2022-09-23T07:52:50;100909.63;;;12.03;75.38
64551;BME280;50945;44.472;-123.352;2022-09-23T07:55:20;100910.34;;;11.96;75.21
64551;BME280;50945;44.472;-123.352;2022-09-23T07:57:46;100916.72;;;11.89;75.54
64551;BME280;50945;44.472;-123.352;2022-09-23T08:00:13;100914.69;;;11.83;75.84
64551;BME280;50945;44.472;-123.352;2022-09-23T08:02:40;100919.50;;;11.80;76.25
64551;BME280;50945;44.472;-123.352;2022-09-23T08:05:07;100911.09;;;11.82;76.02
64551;BME280;50945;44.472;-123.352;2022-09-23T08:07:34;100910.75;;;11.85;76.46
64551;BME280;50945;44.472;-123.352;2022-09-23T08:10:00;100918.09;;;11.85;76.11
64551;BME280;50945;44.472;-123.352;2022-09-23T08:12:28;100910.91;;;11.84;76.26
64551;BME280;50945;44.472;-123.352;2022-09-23T08:14:55;100913.00;;;11.82;76.44
64551;BME280;50945;44.472;-123.352;2022-09-23T08:17:22;100912.50;;;11.78;76.74
64551;BME280;50945;44.472;-123.352;2022-09-23T08:19:48;100913.69;;;11.75;76.57
64551;BME280;50945;44.472;-123.352;2022-09-23T08:22:15;100920.38;;;11.73;76.60
64551;BME280;50945;44.472;-123.352;2022-09-23T08:24:41;100920.75;;;11.70;76.81
64551;BME280;50945;44.472;-123.352;2022-09-23T08:27:08;100920.06;;;11.68;76.70
64551;BME280;50945;44.472;-123.352;2022-09-23T08:29:35;100922.13;;;11.66;76.97
64551;BME280;50945;44.472;-123.352;2022-09-23T08:32:01;100918.72;;;11.64;76.46
64551;BME280;50945;44.472;-123.352;2022-09-23T08:34:28;100921.81;;;11.60;76.62
64551;BME280;50945;44.472;-123.352;2022-09-23T08:36:54;100923.88;;;11.58;76.55
64551;BME280;50945;44.472;-123.352;2022-09-23T08:39:21;100917.03;;;11.54;76.71
64551;BME280;50945;44.472;-123.352;2022-09-23T08:44:56;100933.63;;;11.53;78.11
64551;BME280;50945;44.472;-123.352;2022-09-23T08:50:21;100935.53;;;11.52;76.29
64551;BME280;50945;44.472;-123.352;2022-09-23T08:53:03;100938.44;;;11.51;76.50
64551;BME280;50945;44.472;-123.352;2022-09-23T08:55:41;100935.69;;;11.51;76.51
64551;BME280;50945;44.472;-123.352;2022-09-23T09:06:16;100918.09;;;11.45;76.21
64551;BME280;50945;44.472;-123.352;2022-09-23T09:08:50;100928.72;;;11.40;76.65
64551;BME280;50945;44.472;-123.352;2022-09-23T09:11:18;100934.53;;;11.37;77.19
64551;BME280;50945;44.472;-123.352;2022-09-23T09:14:02;100933.88;;;11.35;78.04
64551;BME280;50945;44.472;-123.352;2022-09-23T09:16:46;100932.53;;;11.31;77.24
64551;BME280;50945;44.472;-123.352;2022-09-23T09:19:26;100935.25;;;11.31;77.42
64551;BME280;50945;44.472;-123.352;2022-09-23T09:21:57;100933.38;;;11.31;77.31
64551;BME280;50945;44.472;-123.352;2022-09-23T09:24:33;100934.03;;;11.33;77.36
64551;BME280;50945;44.472;-123.352;2022-09-23T09:27:10;100923.78;;;11.35;77.59
64551;BME280;50945;44.472;-123.352;2022-09-23T09:29:41;100936.25;;;11.38;77.14
64551;BME280;50945;44.472;-123.352;2022-09-23T09:32:39;100945.31;;;11.38;78.39
64551;BME280;50945;44.472;-123.352;2022-09-23T09:38:09;100938.66;;;11.33;77.24
64551;BME280;50945;44.472;-123.352;2022-09-23T09:40:44;100938.84;;;11.31;77.70
64551;BME280;50945;44.472;-123.352;2022-09-23T09:43:20;100932.69;;;11.29;77.75
64551;BME280;50945;44.472;-123.352;2022-09-23T09:48:58;100938.88;;;11.15;77.72
64551;BME280;50945;44.472;-123.352;2022-09-23T09:51:27;100934.81;;;11.11;77.84
64551;BME280;50945;44.472;-123.352;2022-09-23T09:53:54;100936.16;;;11.07;77.24
64551;BME280;50945;44.472;-123.352;2022-09-23T09:56:40;100930.00;;;11.04;77.92
64551;BME280;50945;44.472;-123.352;2022-09-23T09:59:23;100931.22;;;11.02;78.88
64551;BME280;50945;44.472;-123.352;2022-09-23T10:02:11;100936.69;;;10.94;79.20
64551;BME280;50945;44.472;-123.352;2022-09-23T10:04:37;100934.84;;;10.86;77.60
64551;BME280;50945;44.472;-123.352;2022-09-23T10:07:12;100938.63;;;10.77;77.59
64551;BME280;50945;44.472;-123.352;2022-09-23T10:09:46;100940.66;;;10.67;77.18
64551;BME280;50945;44.472;-123.352;2022-09-23T10:12:14;100936.22;;;10.57;78.02
64551;BME280;50945;44.472;-123.352;2022-09-23T10:14:44;100932.31;;;10.52;77.84
64551;BME280;50945;44.472;-123.352;2022-09-23T10:17:18;100932.47;;;10.50;78.59
64551;BME280;50945;44.472;-123.352;2022-09-23T10:19:48;100936.03;;;10.51;78.39
64551;BME280;50945;44.472;-123.352;2022-09-23T10:22:26;100935.72;;;10.54;78.36
64551;BME280;50945;44.472;-123.352;2022-09-23T10:24:58;100938.78;;;10.59;78.36
64551;BME280;50945;44.472;-123.352;2022-09-23T10:27:28;100934.16;;;10.59;80.57
64551;BME280;50945;44.472;-123.352;2022-09-23T10:29:59;100940.47;;;10.60;77.51
64551;BME280;50945;44.472;-123.352;2022-09-23T10:32:34;100940.66;;;10.58;77.19
64551;BME280;50945;44.472;-123.352;2022-09-23T10:37:44;100926.31;;;10.56;77.84
64551;BME280;50945;44.472;-123.352;2022-09-23T10:43:17;100924.41;;;10.40;77.92
64551;BME280;50945;44.472;-123.352;2022-09-23T10:46:07;100917.06;;;10.33;76.33
64551;BME280;50945;44.472;-123.352;2022-09-23T10:55:07;100915.53;;;10.38;78.50
64551;BME280;50945;44.472;-123.352;2022-09-23T10:57:52;100909.22;;;10.38;78.52
64551;BME280;50945;44.472;-123.352;2022-09-23T11:18:01;100911.22;;;10.27;78.90
64551;BME280;50945;44.472;-123.352;2022-09-23T11:20:53;100908.34;;;10.29;79.47
64551;BME280;50945;44.472;-123.352;2022-09-23T11:28:45;100924.38;;;10.24;78.54
64551;BME280;50945;44.472;-123.352;2022-09-23T11:31:28;100913.78;;;10.21;78.37
64551;BME280;50945;44.472;-123.352;2022-09-23T11:36:55;100935.47;;;10.22;79.75
64551;BME280;50945;44.472;-123.352;2022-09-23T11:39:36;100925.22;;;10.16;79.04
64551;BME280;50945;44.472;-123.352;2022-09-23T11:42:16;100924.72;;;10.13;78.51
64551;BME280;50945;44.472;-123.352;2022-09-23T11:44:52;100921.09;;;10.12;78.98
64551;BME280;50945;44.472;-123.352;2022-09-23T11:47:24;100922.66;;;10.15;78.13
64551;BME280;50945;44.472;-123.352;2022-09-23T11:52:29;100924.50;;;10.14;83.36
64551;BME280;50945;44.472;-123.352;2022-09-23T11:57:53;100924.34;;;10.16;78.32
64551;BME280;50945;44.472;-123.352;2022-09-23T12:00:29;100921.97;;;10.13;78.23
64551;BME280;50945;44.472;-123.352;2022-09-23T12:06:59;100908.50;;;10.11;79.86
64551;BME280;50945;44.472;-123.352;2022-09-23T12:09:02;100908.97;;;10.06;78.39
64551;BME280;50945;44.472;-123.352;2022-09-23T12:11:40;100909.31;;;10.03;78.67
64551;BME280;50945;44.472;-123.352;2022-09-23T12:28:09;100907.03;;;9.82;79.30
64551;BME280;50945;44.472;-123.352;2022-09-23T12:30:37;100916.09;;;9.83;78.99
64551;BME280;50945;44.472;-123.352;2022-09-23T12:35:44;100920.88;;;9.81;79.08
64551;BME280;50945;44.472;-123.352;2022-09-23T12:38:20;100913.69;;;9.80;79.18
64551;BME280;50945;44.472;-123.352;2022-09-23T12:40:47;100922.91;;;9.79;79.17
64551;BME280;50945;44.472;-123.352;2022-09-23T12:43:25;100928.34;;;9.79;78.26
64551;BME280;50945;44.472;-123.352;2022-09-23T12:48:45;100918.94;;;9.65;79.59
64551;BME280;50945;44.472;-123.352;2022-09-23T12:51:17;100928.47;;;9.61;79.27
64551;BME280;50945;44.472;-123.352;2022-09-23T12:58:59;100908.31;;;9.54;78.70
64551;BME280;50945;44.472;-123.352;2022-09-23T13:01:29;100927.25;;;9.55;78.93
64551;BME280;50945;44.472;-123.352;2022-09-23T13:04:00;100917.19;;;9.56;78.73
64551;BME280;50945;44.472;-123.352;2022-09-23T13:07:06;100919.75;;;9.57;79.38
64551;BME280;50945;44.472;-123.352;2022-09-23T13:09:42;100928.09;;;9.56;78.36
64551;BME280;50945;44.472;-123.352;2022-09-23T13:12:24;100926.72;;;9.51;77.84
64551;BME280;50945;44.472;-123.352;2022-09-23T13:14:55;100926.19;;;9.48;77.89
64551;BME280;50945;44.472;-123.352;2022-09-23T13:17:38;100920.38;;;9.43;78.75
64551;BME280;50945;44.472;-123.352;2022-09-23T13:20:32;100919.16;;;9.37;79.18
64551;BME280;50945;44.472;-123.352;2022-09-23T13:23:15;100926.97;;;9.32;78.47
64551;BME280;50945;44.472;-123.352;2022-09-23T13:25:42;100928.00;;;9.31;78.34
64551;BME280;50945;44.472;-123.352;2022-09-23T13:30:56;100944.47;;;9.21;78.72
64551;BME280;50945;44.472;-123.352;2022-09-23T13:36:01;100929.84;;;9.22;79.55
64551;BME280;50945;44.472;-123.352;2022-09-23T13:38:30;100930.31;;;9.18;79.49
64551;BME280;50945;44.472;-123.352;2022-09-23T13:41:21;100933.19;;;9.16;78.72
64551;BME280;50945;44.472;-123.352;2022-09-23T13:43:56;100935.22;;;9.14;78.53
64551;BME280;50945;44.472;-123.352;2022-09-23T13:46:41;100934.69;;;9.10;78.41
64551;BME280;50945;44.472;-123.352;2022-09-23T13:49:28;100936.91;;;9.07;78.62
64551;BME280;50945;44.472;-123.352;2022-09-23T13:51:57;100936.31;;;8.95;78.60
64551;BME280;50945;44.472;-123.352;2022-09-23T13:54:30;100935.72;;;8.83;82.39
64551;BME280;50945;44.472;-123.352;2022-09-23T13:56:58;100938.75;;;8.80;79.78
64551;BME280;50945;44.472;-123.352;2022-09-23T13:59:26;100936.88;;;8.81;79.38
64551;BME280;50945;44.472;-123.352;2022-09-23T14:04:35;100943.53;;;8.78;79.45
64551;BME280;50945;44.472;-123.352;2022-09-23T14:07:03;100933.09;;;8.73;79.45
64551;BME280;50945;44.472;-123.352;2022-09-23T14:09:30;100939.88;;;8.69;79.87
64551;BME280;50945;44.472;-123.352;2022-09-23T14:11:58;100937.47;;;8.66;79.70
64551;BME280;50945;44.472;-123.352;2022-09-23T14:14:27;100947.13;;;8.61;80.06
64551;BME280;50945;44.472;-123.352;2022-09-23T14:16:56;100944.72;;;8.57;80.16
64551;BME280;50945;44.472;-123.352;2022-09-23T14:19:24;100950.31;;;8.56;79.94
64551;BME280;50945;44.472;-123.352;2022-09-23T14:21:54;100949.16;;;8.59;79.85
64551;BME280;50945;44.472;-123.352;2022-09-23T14:29:35;100949.28;;;8.75;80.85
64551;BME280;50945;44.472;-123.352;2022-09-23T14:32:21;100943.91;;;8.83;81.87
64551;BME280;50945;44.472;-123.352;2022-09-23T14:42:55;100950.84;;;9.04;80.19
64551;BME280;50945;44.472;-123.352;2022-09-23T14:45:24;100949.19;;;9.11;80.73
64551;BME280;50945;44.472;-123.352;2022-09-23T14:48:09;100957.28;;;9.21;80.94
64551;BME280;50945;44.472;-123.352;2022-09-23T14:50:36;100961.06;;;9.28;80.84
64551;BME280;50945;44.472;-123.352;2022-09-23T14:56:39;100966.44;;;9.46;85.20
64551;BME280;50945;44.472;-123.352;2022-09-23T14:58:55;100971.09;;;9.54;80.84
64551;BME280;50945;44.472;-123.352;2022-09-23T15:01:32;100971.97;;;9.62;79.73
64551;BME280;50945;44.472;-123.352;2022-09-23T15:04:08;100974.91;;;9.69;79.15
64551;BME280;50945;44.472;-123.352;2022-09-23T15:06:36;100965.03;;;9.76;78.92
64551;BME280;50945;44.472;-123.352;2022-09-23T15:09:05;100973.28;;;9.84;78.62
64551;BME280;50945;44.472;-123.352;2022-09-23T15:11:33;100980.47;;;9.94;78.71
64551;BME280;50945;44.472;-123.352;2022-09-23T15:14:02;100967.72;;;10.02;78.92
64551;BME280;50945;44.472;-123.352;2022-09-23T15:16:30;100978.63;;;10.11;78.63
64551;BME280;50945;44.472;-123.352;2022-09-23T15:18:58;100982.59;;;10.16;78.51
64551;BME280;50945;44.472;-123.352;2022-09-23T15:21:34;100990.97;;;10.23;78.50
64551;BME280;50945;44.472;-123.352;2022-09-23T15:24:35;100984.69;;;10.31;79.47
64551;BME280;50945;44.472;-123.352;2022-09-23T15:27:30;100980.44;;;10.36;77.83
64551;BME280;50945;44.472;-123.352;2022-09-23T15:30:10;100989.69;;;10.43;77.52
64551;BME280;50945;44.472;-123.352;2022-09-23T15:32:40;100990.88;;;10.49;77.70
64551;BME280;50945;44.472;-123.352;2022-09-23T15:35:11;100999.59;;;10.53;77.04
64551;BME280;50945;44.472;-123.352;2022-09-23T15:37:44;100996.38;;;10.57;76.99